sensor_id;sensor_type;location;lat;lon;timestamp;temperature;humidity
32965;DHT22;19317;48.226;11.686;2023-02-27T00:03:11;-1.40;99.90
32965;DHT22;19317;48.226;11.686;2023-02-27T00:08:01;-1.40;99.90
32965;DHT22;19317;48.226;11.686;2023-02-27T00:12:52;-1.50;99.90
32965;DHT22;19317;48.226;11.686;2023-02-27T00:17:43;-1.50;99.90
32965;DHT22;19317;48.226;11.686;2023-02-27T00:22:33;-1.40;99.90
32965;DHT22;19317;48.226;11.686;2023-02-27T00:27:24;-1.40;99.90
32965;DHT22;19317;48.226;11.686;2023-02-27T00:32:14;-1.50;99.90
32965;DHT22;19317;48.226;11.686;2023-02-27T00:37:05;-1.50;99.90
32965;DHT22;19317;48.226;11.686;2023-02-27T00:41:55;-1.50;99.90
32965;DHT22;19317;48.226;11.686;2023-02-27T00:46:46;-1.50;99.90
32965;DHT22;19317;48.226;11.686;2023-02-27T00:51:36;-1.50;99.90
32965;DHT22;19317;48.226;11.686;2023-02-27T00:56:26;-1.40;99.90
32965;DHT22;19317;48.226;11.686;2023-02-27T01:01:17;-1.40;99.90
32965;DHT22;19317;48.226;11.686;2023-02-27T01:06:07;-1.40;99.90
32965;DHT22;19317;48.226;11.686;2023-02-27T01:10:58;-1.40;99.90
32965;DHT22;19317;48.226;11.686;2023-02-27T01:15:49;-1.40;99.90
32965;DHT22;19317;48.226;11.686;2023-02-27T01:20:39;-1.40;99.90
32965;DHT22;19317;48.226;11.686;2023-02-27T01:25:30;-1.40;99.90
32965;DHT22;19317;48.226;11.686;2023-02-27T01:30:20;-1.40;99.90
32965;DHT22;19317;48.226;11.686;2023-02-27T01:35:11;-1.30;99.90
32965;DHT22;19317;48.226;11.686;2023-02-27T01:40:01;-1.40;99.90
32965;DHT22;19317;48.226;11.686;2023-02-27T01:50:02;-1.40;99.90
32965;DHT22;19317;48.226;11.686;2023-02-27T01:54:53;-1.40;99.90
32965;DHT22;19317;48.226;11.686;2023-02-27T01:59:44;-1.40;99.90
32965;DHT22;19317;48.226;11.686;2023-02-27T02:04:37;-1.40;99.90
32965;DHT22;19317;48.226;11.686;2023-02-27T02:09:29;-1.40;99.90
32965;DHT22;19317;48.226;11.686;2023-02-27T02:14:20;-1.40;99.90
32965;DHT22;19317;48.226;11.686;2023-02-27T02:34:53;-0.60;99.90
32965;DHT22;19317;48.226;11.686;2023-02-27T02:39:58;-1.30;99.90
32965;DHT22;19317;48.226;11.686;2023-02-27T02:50:11;-1.40;99.90
32965;DHT22;19317;48.226;11.686;2023-02-27T02:55:33;-1.40;99.90
32965;DHT22;19317;48.226;11.686;2023-02-27T03:00:29;-1.50;99.90
32965;DHT22;19317;48.226;11.686;2023-02-27T03:05:28;-1.60;99.90
32965;DHT22;19317;48.226;11.686;2023-02-27T03:11:06;-1.60;99.90
32965;DHT22;19317;48.226;11.686;2023-02-27T03:20:46;-1.60;99.90
32965;DHT22;19317;48.226;11.686;2023-02-27T03:25:39;-1.60;99.90
32965;DHT22;19317;48.226;11.686;2023-02-27T03:30:38;-1.60;99.90
32965;DHT22;19317;48.226;11.686;2023-02-27T03:35:40;-1.60;99.90
32965;DHT22;19317;48.226;11.686;2023-02-27T03:41:04;-1.60;99.90
32965;DHT22;19317;48.226;11.686;2023-02-27T03:51:02;-1.70;99.90
32965;DHT22;19317;48.226;11.686;2023-02-27T03:55:54;-1.70;99.90
32965;DHT22;19317;48.226;11.686;2023-02-27T04:00:45;-1.60;99.90
32965;DHT22;19317;48.226;11.686;2023-02-27T04:05:36;-1.60;99.90
32965;DHT22;19317;48.226;11.686;2023-02-27T04:21:00;-1.70;99.90
32965;DHT22;19317;48.226;11.686;2023-02-27T04:26:27;-1.70;99.90
32965;DHT22;19317;48.226;11.686;2023-02-27T04:31:31;-1.70;99.90
32965;DHT22;19317;48.226;11.686;2023-02-27T04:36:41;-1.60;99.90
32965;DHT22;19317;48.226;11.686;2023-02-27T04:41:49;-1.60;99.90
32965;DHT22;19317;48.226;11.686;2023-02-27T04:46:43;-1.60;99.90
32965;DHT22;19317;48.226;11.686;2023-02-27T04:51:39;-1.70;99.90
32965;DHT22;19317;48.226;11.686;2023-02-27T04:56:41;-1.70;99.90
32965;DHT22;19317;48.226;11.686;2023-02-27T05:01:38;-1.80;99.90
32965;DHT22;19317;48.226;11.686;2023-02-27T05:06:31;-1.80;99.90
32965;DHT22;19317;48.226;11.686;2023-02-27T05:11:59;-1.90;99.90
32965;DHT22;19317;48.226;11.686;2023-02-27T05:17:05;-1.80;99.90
32965;DHT22;19317;48.226;11.686;2023-02-27T05:27:22;-1.80;99.90
32965;DHT22;19317;48.226;11.686;2023-02-27T05:32:33;-1.80;99.90
32965;DHT22;19317;48.226;11.686;2023-02-27T05:37:32;-1.70;99.90
32965;DHT22;19317;48.226;11.686;2023-02-27T05:42:27;-1.80;99.90
32965;DHT22;19317;48.226;11.686;2023-02-27T05:47:22;-1.70;99.90
32965;DHT22;19317;48.226;11.686;2023-02-27T05:52:18;-1.80;99.90
32965;DHT22;19317;48.226;11.686;2023-02-27T05:57:15;-1.80;99.90
32965;DHT22;19317;48.226;11.686;2023-02-27T06:02:07;-1.90;99.90
32965;DHT22;19317;48.226;11.686;2023-02-27T06:06:57;-1.90;99.90
32965;DHT22;19317;48.226;11.686;2023-02-27T06:11:48;-1.90;99.90
32965;DHT22;19317;48.226;11.686;2023-02-27T06:16:38;-2.00;99.90
32965;DHT22;19317;48.226;11.686;2023-02-27T06:21:29;-2.00;99.90
32965;DHT22;19317;48.226;11.686;2023-02-27T06:26:19;-2.00;99.90
32965;DHT22;19317;48.226;11.686;2023-02-27T06:31:10;-2.00;99.90
32965;DHT22;19317;48.226;11.686;2023-02-27T06:36:00;-1.90;99.90
32965;DHT22;19317;48.226;11.686;2023-02-27T06:40:51;-1.90;99.90
32965;DHT22;19317;48.226;11.686;2023-02-27T06:45:41;-1.90;99.90
32965;DHT22;19317;48.226;11.686;2023-02-27T06:50:31;-1.90;99.90
32965;DHT22;19317;48.226;11.686;2023-02-27T06:55:22;-1.80;99.90
32965;DHT22;19317;48.226;11.686;2023-02-27T07:00:13;-1.80;99.90
32965;DHT22;19317;48.226;11.686;2023-02-27T07:05:04;-1.20;99.90
32965;DHT22;19317;48.226;11.686;2023-02-27T07:09:54;-1.40;99.90
32965;DHT22;19317;48.226;11.686;2023-02-27T07:14:45;-1.50;99.90
32965;DHT22;19317;48.226;11.686;2023-02-27T07:19:35;-1.60;99.90
32965;DHT22;19317;48.226;11.686;2023-02-27T07:24:26;-1.50;99.90
32965;DHT22;19317;48.226;11.686;2023-02-27T07:29:16;-1.50;99.90
32965;DHT22;19317;48.226;11.686;2023-02-27T07:34:07;-1.40;99.90
32965;DHT22;19317;48.226;11.686;2023-02-27T07:38:57;-1.40;99.90
32965;DHT22;19317;48.226;11.686;2023-02-27T07:43:48;-1.40;99.90
32965;DHT22;19317;48.226;11.686;2023-02-27T07:48:38;-1.30;99.90
32965;DHT22;19317;48.226;11.686;2023-02-27T07:53:29;-1.20;99.90
32965;DHT22;19317;48.226;11.686;2023-02-27T07:58:19;-1.10;99.90
32965;DHT22;19317;48.226;11.686;2023-02-27T08:03:10;-1.20;99.90
32965;DHT22;19317;48.226;11.686;2023-02-27T08:08:01;-1.10;99.90
32965;DHT22;19317;48.226;11.686;2023-02-27T08:12:51;-1.00;99.90
32965;DHT22;19317;48.226;11.686;2023-02-27T08:17:45;-1.00;99.90
32965;DHT22;19317;48.226;11.686;2023-02-27T08:22:36;-1.00;99.90
32965;DHT22;19317;48.226;11.686;2023-02-27T08:27:27;-1.00;99.90
32965;DHT22;19317;48.226;11.686;2023-02-27T08:32:17;-0.90;99.90
32965;DHT22;19317;48.226;11.686;2023-02-27T08:37:08;-0.90;99.90
32965;DHT22;19317;48.226;11.686;2023-02-27T08:41:58;-0.90;99.90
32965;DHT22;19317;48.226;11.686;2023-02-27T08:46:49;-0.90;99.90
32965;DHT22;19317;48.226;11.686;2023-02-27T08:51:39;-0.90;99.90
32965;DHT22;19317;48.226;11.686;2023-02-27T08:56:30;-0.80;99.90
32965;DHT22;19317;48.226;11.686;2023-02-27T09:01:20;-0.70;99.90
32965;DHT22;19317;48.226;11.686;2023-02-27T09:06:11;-0.70;99.90
32965;DHT22;19317;48.226;11.686;2023-02-27T09:11:02;-0.70;99.90
32965;DHT22;19317;48.226;11.686;2023-02-27T09:15:53;-0.60;99.90
32965;DHT22;19317;48.226;11.686;2023-02-27T09:20:43;-0.60;99.90
32965;DHT22;19317;48.226;11.686;2023-02-27T09:25:34;-0.50;99.90
32965;DHT22;19317;48.226;11.686;2023-02-27T09:30:24;-0.60;99.90
32965;DHT22;19317;48.226;11.686;2023-02-27T09:35:15;-0.60;99.90
32965;DHT22;19317;48.226;11.686;2023-02-27T09:40:06;-0.90;99.90
32965;DHT22;19317;48.226;11.686;2023-02-27T09:45:02;-0.80;99.90
32965;DHT22;19317;48.226;11.686;2023-02-27T09:49:58;-0.80;99.90
32965;DHT22;19317;48.226;11.686;2023-02-27T09:54:49;-0.80;99.90
32965;DHT22;19317;48.226;11.686;2023-02-27T10:00:25;-0.70;99.90
32965;DHT22;19317;48.226;11.686;2023-02-27T10:10:35;-0.80;99.90
32965;DHT22;19317;48.226;11.686;2023-02-27T10:15:32;-0.70;99.90
32965;DHT22;19317;48.226;11.686;2023-02-27T10:20:39;-0.70;99.90
32965;DHT22;19317;48.226;11.686;2023-02-27T10:25:33;-0.70;99.90
32965;DHT22;19317;48.226;11.686;2023-02-27T10:30:28;-0.70;99.90
32965;DHT22;19317;48.226;11.686;2023-02-27T10:35:32;-0.60;99.90
32965;DHT22;19317;48.226;11.686;2023-02-27T10:40:23;0.20;99.90
32965;DHT22;19317;48.226;11.686;2023-02-27T10:45:14;-0.40;99.90
32965;DHT22;19317;48.226;11.686;2023-02-27T10:55:22;-0.20;99.90
32965;DHT22;19317;48.226;11.686;2023-02-27T11:00:31;-0.20;99.90
32965;DHT22;19317;48.226;11.686;2023-02-27T11:05:28;-0.20;99.90
32965;DHT22;19317;48.226;11.686;2023-02-27T11:10:24;-0.20;99.90
32965;DHT22;19317;48.226;11.686;2023-02-27T11:25:22;-0.20;99.90
32965;DHT22;19317;48.226;11.686;2023-02-27T11:30:25;-0.10;99.90
32965;DHT22;19317;48.226;11.686;2023-02-27T11:35:32;0.20;99.90
32965;DHT22;19317;48.226;11.686;2023-02-27T11:40:29;0.00;99.90
32965;DHT22;19317;48.226;11.686;2023-02-27T11:55:13;0.10;99.90
32965;DHT22;19317;48.226;11.686;2023-02-27T12:00:18;-0.10;99.90
32965;DHT22;19317;48.226;11.686;2023-02-27T12:05:18;-0.10;99.90
32965;DHT22;19317;48.226;11.686;2023-02-27T12:10:11;-0.10;99.90
32965;DHT22;19317;48.226;11.686;2023-02-27T12:20:21;0.00;99.90
32965;DHT22;19317;48.226;11.686;2023-02-27T12:30:35;0.00;99.90
32965;DHT22;19317;48.226;11.686;2023-02-27T12:35:29;0.00;99.90
32965;DHT22;19317;48.226;11.686;2023-02-27T12:40:29;0.10;99.90
32965;DHT22;19317;48.226;11.686;2023-02-27T12:50:52;0.10;99.90
32965;DHT22;19317;48.226;11.686;2023-02-27T12:56:01;0.10;99.90
32965;DHT22;19317;48.226;11.686;2023-02-27T13:11:34;0.20;99.90
32965;DHT22;19317;48.226;11.686;2023-02-27T13:16:32;0.30;99.90
32965;DHT22;19317;48.226;11.686;2023-02-27T13:21:32;0.20;99.90
32965;DHT22;19317;48.226;11.686;2023-02-27T13:26:29;0.20;99.90
32965;DHT22;19317;48.226;11.686;2023-02-27T13:31:41;0.40;99.90
32965;DHT22;19317;48.226;11.686;2023-02-27T13:36:45;0.30;99.90
32965;DHT22;19317;48.226;11.686;2023-02-27T13:41:38;0.20;99.90
32965;DHT22;19317;48.226;11.686;2023-02-27T13:46:32;0.30;99.90
32965;DHT22;19317;48.226;11.686;2023-02-27T13:56:26;0.20;99.90
32965;DHT22;19317;48.226;11.686;2023-02-27T14:01:22;0.20;99.90
32965;DHT22;19317;48.226;11.686;2023-02-27T14:06:15;0.20;99.90
32965;DHT22;19317;48.226;11.686;2023-02-27T14:11:34;0.20;99.90
32965;DHT22;19317;48.226;11.686;2023-02-27T14:26:55;0.30;99.90
32965;DHT22;19317;48.226;11.686;2023-02-27T14:31:46;0.40;99.90
32965;DHT22;19317;48.226;11.686;2023-02-27T14:36:44;0.20;99.90
32965;DHT22;19317;48.226;11.686;2023-02-27T14:41:48;0.20;99.90
32965;DHT22;19317;48.226;11.686;2023-02-27T14:46:41;0.20;99.90
32965;DHT22;19317;48.226;11.686;2023-02-27T14:51:35;0.20;99.90
32965;DHT22;19317;48.226;11.686;2023-02-27T14:56:26;0.20;99.90
32965;DHT22;19317;48.226;11.686;2023-02-27T15:01:17;0.30;99.90
32965;DHT22;19317;48.226;11.686;2023-02-27T15:06:17;0.30;99.90
32965;DHT22;19317;48.226;11.686;2023-02-27T15:11:13;0.40;99.90
32965;DHT22;19317;48.226;11.686;2023-02-27T15:21:14;0.30;99.90
32965;DHT22;19317;48.226;11.686;2023-02-27T15:26:04;0.20;99.90
32965;DHT22;19317;48.226;11.686;2023-02-27T15:30:55;0.20;99.90
32965;DHT22;19317;48.226;11.686;2023-02-27T15:35:46;0.10;99.90
32965;DHT22;19317;48.226;11.686;2023-02-27T15:40:37;0.00;99.90
32965;DHT22;19317;48.226;11.686;2023-02-27T15:45:33;0.10;99.90
32965;DHT22;19317;48.226;11.686;2023-02-27T15:50:32;0.40;99.90
32965;DHT22;19317;48.226;11.686;2023-02-27T15:55:32;0.10;99.90
32965;DHT22;19317;48.226;11.686;2023-02-27T16:00:23;0.10;99.90
32965;DHT22;19317;48.226;11.686;2023-02-27T16:10:24;0.00;99.90
32965;DHT22;19317;48.226;11.686;2023-02-27T16:15:32;-0.10;99.90
32965;DHT22;19317;48.226;11.686;2023-02-27T16:20:44;-0.10;99.90
32965;DHT22;19317;48.226;11.686;2023-02-27T16:25:35;-0.10;99.90
32965;DHT22;19317;48.226;11.686;2023-02-27T16:30:25;-0.10;99.90
32965;DHT22;19317;48.226;11.686;2023-02-27T16:35:18;-0.20;99.90
32965;DHT22;19317;48.226;11.686;2023-02-27T16:40:18;-0.30;99.90
32965;DHT22;19317;48.226;11.686;2023-02-27T16:45:17;-0.30;99.90
32965;DHT22;19317;48.226;11.686;2023-02-27T16:50:29;-0.30;99.90
32965;DHT22;19317;48.226;11.686;2023-02-27T16:55:21;-0.30;99.90
32965;DHT22;19317;48.226;11.686;2023-02-27T17:00:16;-0.40;99.90
32965;DHT22;19317;48.226;11.686;2023-02-27T17:05:07;-0.40;99.90
32965;DHT22;19317;48.226;11.686;2023-02-27T17:09:58;-0.30;99.90
32965;DHT22;19317;48.226;11.686;2023-02-27T17:14:49;-0.30;99.90
32965;DHT22;19317;48.226;11.686;2023-02-27T17:19:39;-0.20;99.90
32965;DHT22;19317;48.226;11.686;2023-02-27T17:24:29;-0.30;99.90
32965;DHT22;19317;48.226;11.686;2023-02-27T17:29:21;-0.40;99.90
32965;DHT22;19317;48.226;11.686;2023-02-27T17:34:11;-0.50;99.90
32965;DHT22;19317;48.226;11.686;2023-02-27T17:39:02;-0.50;99.90
32965;DHT22;19317;48.226;11.686;2023-02-27T17:43:55;-0.60;99.90
32965;DHT22;19317;48.226;11.686;2023-02-27T17:48:45;-0.60;99.90
32965;DHT22;19317;48.226;11.686;2023-02-27T17:53:36;-0.60;99.90
32965;DHT22;19317;48.226;11.686;2023-02-27T17:58:27;-0.70;99.90
32965;DHT22;19317;48.226;11.686;2023-02-27T18:03:18;-0.80;99.90
32965;DHT22;19317;48.226;11.686;2023-02-27T18:08:08;-0.70;99.90
32965;DHT22;19317;48.226;11.686;2023-02-27T18:12:59;-0.70;99.90
32965;DHT22;19317;48.226;11.686;2023-02-27T18:17:49;-0.70;99.90
32965;DHT22;19317;48.226;11.686;2023-02-27T18:22:40;-0.80;99.90
32965;DHT22;19317;48.226;11.686;2023-02-27T18:27:30;-0.90;99.90
32965;DHT22;19317;48.226;11.686;2023-02-27T18:32:21;-0.90;99.90
32965;DHT22;19317;48.226;11.686;2023-02-27T18:37:11;-0.90;99.90
32965;DHT22;19317;48.226;11.686;2023-02-27T18:42:02;-1.00;99.90
32965;DHT22;19317;48.226;11.686;2023-02-27T18:46:52;-1.00;99.90
32965;DHT22;19317;48.226;11.686;2023-02-27T18:51:43;-1.00;99.90
32965;DHT22;19317;48.226;11.686;2023-02-27T18:56:33;-1.10;99.90
32965;DHT22;19317;48.226;11.686;2023-02-27T19:01:29;-1.20;99.90
32965;DHT22;19317;48.226;11.686;2023-02-27T19:06:20;-1.20;99.90
32965;DHT22;19317;48.226;11.686;2023-02-27T19:11:28;-1.20;99.90
32965;DHT22;19317;48.226;11.686;2023-02-27T19:16:19;-1.20;99.90
32965;DHT22;19317;48.226;11.686;2023-02-27T19:21:10;-1.30;99.90
32965;DHT22;19317;48.226;11.686;2023-02-27T19:26:00;-1.20;99.90
32965;DHT22;19317;48.226;11.686;2023-02-27T19:30:51;-1.20;99.90
32965;DHT22;19317;48.226;11.686;2023-02-27T19:35:41;-1.30;99.90
32965;DHT22;19317;48.226;11.686;2023-02-27T19:40:32;-1.30;99.90
32965;DHT22;19317;48.226;11.686;2023-02-27T19:45:23;-1.20;99.90
32965;DHT22;19317;48.226;11.686;2023-02-27T19:50:13;-1.20;99.90
32965;DHT22;19317;48.226;11.686;2023-02-27T19:55:06;-1.20;99.90
32965;DHT22;19317;48.226;11.686;2023-02-27T19:59:57;-1.10;99.90
32965;DHT22;19317;48.226;11.686;2023-02-27T20:04:47;-1.10;99.90
32965;DHT22;19317;48.226;11.686;2023-02-27T20:09:38;-1.20;99.90
32965;DHT22;19317;48.226;11.686;2023-02-27T20:14:28;-1.20;99.90
32965;DHT22;19317;48.226;11.686;2023-02-27T20:19:19;-1.20;99.90
32965;DHT22;19317;48.226;11.686;2023-02-27T20:24:11;-1.20;99.90
32965;DHT22;19317;48.226;11.686;2023-02-27T20:29:11;-1.20;99.90
32965;DHT22;19317;48.226;11.686;2023-02-27T20:34:03;-1.20;99.90
32965;DHT22;19317;48.226;11.686;2023-02-27T20:38:54;-1.20;99.90
32965;DHT22;19317;48.226;11.686;2023-02-27T20:43:45;-1.20;99.90
32965;DHT22;19317;48.226;11.686;2023-02-27T20:48:35;-0.10;99.90
32965;DHT22;19317;48.226;11.686;2023-02-27T20:53:26;-0.30;99.90
32965;DHT22;19317;48.226;11.686;2023-02-27T20:58:16;-1.00;99.90
32965;DHT22;19317;48.226;11.686;2023-02-27T21:03:07;-1.00;99.90
32965;DHT22;19317;48.226;11.686;2023-02-27T21:07:57;-1.20;99.90
32965;DHT22;19317;48.226;11.686;2023-02-27T21:12:48;-1.10;99.90
32965;DHT22;19317;48.226;11.686;2023-02-27T21:17:38;-1.10;99.90
32965;DHT22;19317;48.226;11.686;2023-02-27T21:22:28;-1.20;99.90
32965;DHT22;19317;48.226;11.686;2023-02-27T21:27:19;-1.20;99.90
32965;DHT22;19317;48.226;11.686;2023-02-27T21:32:09;-1.30;99.90
32965;DHT22;19317;48.226;11.686;2023-02-27T21:37:00;-1.30;99.90
32965;DHT22;19317;48.226;11.686;2023-02-27T21:41:51;-1.30;99.90
32965;DHT22;19317;48.226;11.686;2023-02-27T21:46:42;-1.30;99.90
32965;DHT22;19317;48.226;11.686;2023-02-27T21:51:33;-1.40;99.90
32965;DHT22;19317;48.226;11.686;2023-02-27T21:56:24;-1.40;99.90
32965;DHT22;19317;48.226;11.686;2023-02-27T22:01:17;-1.40;99.90
32965;DHT22;19317;48.226;11.686;2023-02-27T22:06:08;-1.30;99.90
32965;DHT22;19317;48.226;11.686;2023-02-27T22:10:59;-1.40;99.90
32965;DHT22;19317;48.226;11.686;2023-02-27T22:15:50;-1.30;99.90
32965;DHT22;19317;48.226;11.686;2023-02-27T22:20:41;-1.40;99.90
32965;DHT22;19317;48.226;11.686;2023-02-27T22:25:31;-1.40;99.90
32965;DHT22;19317;48.226;11.686;2023-02-27T22:30:22;-1.50;99.90
32965;DHT22;19317;48.226;11.686;2023-02-27T22:35:12;-1.40;99.90
32965;DHT22;19317;48.226;11.686;2023-02-27T22:40:03;-1.50;99.90
32965;DHT22;19317;48.226;11.686;2023-02-27T22:44:54;-1.50;99.90
32965;DHT22;19317;48.226;11.686;2023-02-27T22:49:44;-1.50;99.90
32965;DHT22;19317;48.226;11.686;2023-02-27T22:54:35;-1.50;99.90
32965;DHT22;19317;48.226;11.686;2023-02-27T22:59:25;-1.60;99.90
32965;DHT22;19317;48.226;11.686;2023-02-27T23:04:16;-1.60;99.90
32965;DHT22;19317;48.226;11.686;2023-02-27T23:09:10;-1.70;99.90
32965;DHT22;19317;48.226;11.686;2023-02-27T23:14:01;-1.70;99.90
32965;DHT22;19317;48.226;11.686;2023-02-27T23:18:54;-1.70;99.90
32965;DHT22;19317;48.226;11.686;2023-02-27T23:23:45;-1.70;99.90
32965;DHT22;19317;48.226;11.686;2023-02-27T23:28:37;-1.70;99.90
32965;DHT22;19317;48.226;11.686;2023-02-27T23:33:28;-1.70;99.90
32965;DHT22;19317;48.226;11.686;2023-02-27T23:38:19;-1.80;99.90
32965;DHT22;19317;48.226;11.686;2023-02-27T23:43:09;-1.80;99.90
32965;DHT22;19317;48.226;11.686;2023-02-27T23:48:01;-1.80;99.90
32965;DHT22;19317;48.226;11.686;2023-02-27T23:52:53;-1.90;99.90
32965;DHT22;19317;48.226;11.686;2023-02-27T23:57:44;-1.80;99.90
